Time;durP1;ratioP1;P1;durP2;ratioP2;P2;SDS_P1;SDS_P2;PMS_P1;PMS_P2;Temp;Humidity;BMP_temperature;BMP_pressure;BME280_temperature;BME280_humidity;BME280_pressure;Samples;Min_cycle;Max_cycle;Signal;HPM_P1;HPM_P2
2021/03/31 00:00:46;;;;;;;4.17;2.33;;;8.80;99.90;;;;;;1915578;74;21155;-74
2021/03/31 00:03:12;;;;;;;3.85;2.12;;;8.70;99.90;;;;;;1915672;74;21074;-74
2021/03/31 00:05:38;;;;;;;4.90;2.80;;;8.70;99.90;;;;;;1912472;74;21078;-74
2021/03/31 00:08:04;;;;;;;4.10;2.60;;;8.70;99.90;;;;;;1915653;73;21062;-74
2021/03/31 00:10:30;;;;;;;7.75;2.50;;;8.60;99.90;;;;;;1915658;74;21242;-74
2021/03/31 00:12:56;;;;;;;6.22;2.00;;;8.60;99.90;;;;;;1914533;74;21082;-74
2021/03/31 00:15:23;;;;;;;8.65;2.45;;;8.50;99.90;;;;;;1914395;74;21070;-74
2021/03/31 00:17:49;;;;;;;4.15;1.67;;;8.50;99.90;;;;;;1912448;74;21086;-74
2021/03/31 00:20:15;;;;;;;3.42;1.77;;;8.40;99.90;;;;;;1912280;73;21035;-75
2021/03/31 00:22:41;;;;;;;4.45;2.72;;;8.40;99.90;;;;;;1912523;74;21149;-74
2021/03/31 00:25:07;;;;;;;5.00;2.27;;;8.30;99.90;;;;;;1915399;74;21142;-74
2021/03/31 00:27:33;;;;;;;3.25;1.90;;;8.30;99.90;;;;;;1917656;73;21070;-75
2021/03/31 00:30:00;;;;;;;2.75;1.98;;;8.30;99.90;;;;;;1913911;73;21078;-74
2021/03/31 00:32:26;;;;;;;12.63;2.58;;;8.30;99.90;;;;;;1915001;73;21077;-74
2021/03/31 00:34:52;;;;;;;5.45;2.42;;;8.20;99.90;;;;;;1917868;73;21059;-74
2021/03/31 00:37:18;;;;;;;2.90;1.92;;;8.20;99.90;;;;;;1912183;74;21156;-74
2021/03/31 00:39:44;;;;;;;3.90;2.62;;;8.10;99.90;;;;;;1915492;73;21067;-74
2021/03/31 00:42:10;;;;;;;8.45;2.55;;;8.10;99.90;;;;;;1914409;74;21090;-74
2021/03/31 00:44:36;;;;;;;4.65;2.12;;;8.00;99.90;;;;;;1916259;74;21082;-74
2021/03/31 00:47:02;;;;;;;5.05;2.17;;;8.00;99.90;;;;;;1910591;74;21095;-74
2021/03/31 00:49:29;;;;;;;4.28;2.40;;;8.00;99.90;;;;;;1913350;73;21493;-74
2021/03/31 00:51:55;;;;;;;5.05;2.12;;;7.90;99.90;;;;;;1915527;73;21633;-75
2021/03/31 00:54:21;;;;;;;5.08;2.50;;;7.80;99.90;;;;;;1918594;73;21530;-74
2021/03/31 00:56:48;;;;;;;4.15;2.30;;;7.80;99.90;;;;;;1915501;73;21066;-74
2021/03/31 00:59:14;;;;;;;6.20;2.47;;;7.80;99.90;;;;;;1910576;73;21156;-74
2021/03/31 01:01:40;;;;;;;3.98;2.20;;;7.70;99.90;;;;;;1909924;74;21070;-74
2021/03/31 01:04:06;;;;;;;5.95;2.35;;;7.70;99.90;;;;;;1908110;74;21070;-74
2021/03/31 01:06:32;;;;;;;3.02;2.15;;;7.60;99.90;;;;;;1910859;74;21200;-74
2021/03/31 01:08:58;;;;;;;6.00;2.10;;;7.50;99.90;;;;;;1915475;73;21525;-74
2021/03/31 01:11:25;;;;;;;6.12;2.70;;;7.50;99.90;;;;;;1918708;73;21564;-73
2021/03/31 01:13:51;;;;;;;7.62;2.77;;;7.50;99.90;;;;;;1918511;74;21498;-74
2021/03/31 01:16:17;;;;;;;7.85;2.12;;;7.40;99.90;;;;;;1915548;74;21043;-74
2021/03/31 01:18:43;;;;;;;5.62;2.40;;;7.40;99.90;;;;;;1915383;73;21063;-74
2021/03/31 01:21:11;;;;;;;6.03;2.42;;;7.30;99.90;;;;;;1912541;74;21235;-74
2021/03/31 01:23:37;;;;;;;8.45;2.45;;;7.40;99.90;;;;;;1917857;73;21530;-74
2021/03/31 01:26:03;;;;;;;8.20;2.37;;;7.30;99.90;;;;;;1912394;74;21510;-74
2021/03/31 01:28:29;;;;;;;3.47;2.30;;;7.30;99.90;;;;;;1912940;73;21583;-74
2021/03/31 01:30:55;;;;;;;5.03;2.37;;;7.30;99.90;;;;;;1912469;73;21494;-74
2021/03/31 01:33:21;;;;;;;5.92;2.62;;;7.30;99.90;;;;;;1911153;74;21160;-74
2021/03/31 01:35:47;;;;;;;4.03;2.35;;;7.30;99.90;;;;;;1915561;73;21077;-73
2021/03/31 01:38:14;;;;;;;4.45;2.40;;;7.20;99.90;;;;;;1912401;73;21075;-74
2021/03/31 01:40:40;;;;;;;4.10;2.30;;;7.20;99.90;;;;;;1918601;73;21082;-74
2021/03/31 01:43:06;;;;;;;3.72;2.37;;;7.20;99.90;;;;;;1917207;73;21069;-74
2021/03/31 01:45:32;;;;;;;3.67;2.37;;;7.20;99.90;;;;;;1916943;73;21046;-74
2021/03/31 01:47:58;;;;;;;5.67;2.35;;;7.20;99.90;;;;;;1913849;74;21173;-74
2021/03/31 01:50:24;;;;;;;8.23;2.58;;;7.10;99.90;;;;;;1914230;74;21526;-73
2021/03/31 01:52:50;;;;;;;6.20;2.80;;;7.00;99.90;;;;;;1915383;73;21514;-75
2021/03/31 01:55:17;;;;;;;4.72;2.77;;;6.90;99.90;;;;;;1913575;73;21498;-74
2021/03/31 01:57:43;;;;;;;3.60;2.67;;;6.80;99.90;;;;;;1914364;73;21082;-74
2021/03/31 02:00:09;;;;;;;5.62;2.77;;;6.80;99.90;;;;;;1911386;74;21043;-74
2021/03/31 02:02:35;;;;;;;5.37;3.17;;;6.90;99.90;;;;;;1909852;73;21132;-74
2021/03/31 02:05:01;;;;;;;5.85;2.98;;;6.80;99.90;;;;;;1915029;73;21679;-74
2021/03/31 02:07:27;;;;;;;7.37;2.90;;;6.90;99.90;;;;;;1915790;73;21191;-74
2021/03/31 02:09:53;;;;;;;5.12;2.47;;;6.90;99.90;;;;;;1912513;74;21062;-74
2021/03/31 02:12:19;;;;;;;4.00;2.62;;;6.90;99.90;;;;;;1911249;74;21055;-74
2021/03/31 02:14:46;;;;;;;4.85;2.80;;;6.90;99.90;;;;;;1918668;73;21043;-74
2021/03/31 02:17:12;;;;;;;7.80;2.72;;;6.80;99.90;;;;;;1918628;74;21530;-74
2021/03/31 02:19:38;;;;;;;5.78;2.62;;;6.90;99.90;;;;;;1915315;73;21529;-74
2021/03/31 02:22:04;;;;;;;9.28;3.05;;;6.80;99.90;;;;;;1912466;73;21140;-75
2021/03/31 02:24:31;;;;;;;4.90;2.87;;;6.70;99.90;;;;;;1912335;74;21176;-74
2021/03/31 02:26:57;;;;;;;9.80;3.27;;;6.70;99.90;;;;;;1917992;74;21074;-74
2021/03/31 02:29:23;;;;;;;4.58;2.95;;;6.60;99.90;;;;;;1909061;74;21156;-74
2021/03/31 02:31:49;;;;;;;8.25;3.10;;;6.60;99.90;;;;;;1917656;74;21043;-74
2021/03/31 02:34:15;;;;;;;8.20;2.92;;;6.60;99.90;;;;;;1915924;73;21129;-74
2021/03/31 02:36:41;;;;;;;7.58;3.45;;;6.60;99.90;;;;;;1915485;74;21066;-74
2021/03/31 02:39:07;;;;;;;5.10;3.20;;;6.40;99.90;;;;;;1914451;74;21140;-74
2021/03/31 02:41:33;;;;;;;7.28;3.02;;;6.30;99.90;;;;;;1910918;74;21144;-74
2021/03/31 02:43:59;;;;;;;4.15;2.90;;;6.30;99.90;;;;;;1917064;74;21148;-73
2021/03/31 02:46:26;;;;;;;5.60;2.70;;;6.30;99.90;;;;;;1915316;74;21077;-74
2021/03/31 02:48:52;;;;;;;4.00;2.50;;;6.30;99.90;;;;;;1911411;73;21074;-74
2021/03/31 02:51:18;;;;;;;6.15;3.12;;;6.30;99.90;;;;;;1915390;73;21157;-74
2021/03/31 02:53:44;;;;;;;4.95;2.30;;;6.20;99.90;;;;;;1918688;73;21506;-74
2021/03/31 02:56:10;;;;;;;3.22;2.35;;;6.20;99.90;;;;;;1912328;74;21524;-74
2021/03/31 02:58:36;;;;;;;9.03;3.42;;;6.20;99.90;;;;;;1918584;73;21540;-74
2021/03/31 03:01:02;;;;;;;4.45;2.72;;;6.20;99.90;;;;;;1912348;74;21073;-74
2021/03/31 03:03:28;;;;;;;8.98;3.40;;;6.10;99.90;;;;;;1914590;73;21136;-74
2021/03/31 03:05:55;;;;;;;3.75;2.58;;;6.10;99.90;;;;;;1911595;74;21209;-73
2021/03/31 03:08:21;;;;;;;2.90;2.42;;;6.20;99.90;;;;;;1915053;74;21116;-73
2021/03/31 03:10:47;;;;;;;4.83;2.77;;;6.20;99.90;;;;;;1915835;74;21078;-73
2021/03/31 03:13:13;;;;;;;4.92;2.83;;;6.20;99.90;;;;;;1915337;74;21035;-73
2021/03/31 03:15:39;;;;;;;5.33;3.22;;;6.20;99.90;;;;;;1915505;73;21074;-74
2021/03/31 03:18:05;;;;;;;9.50;3.02;;;6.20;99.90;;;;;;1912424;74;21149;-73
2021/03/31 03:20:31;;;;;;;8.43;2.83;;;6.10;99.90;;;;;;1915344;74;21191;-74
2021/03/31 03:22:57;;;;;;;5.85;2.62;;;6.10;99.90;;;;;;1912559;74;21074;-73
2021/03/31 03:25:24;;;;;;;5.50;3.12;;;6.10;99.90;;;;;;1915474;74;21085;-73
2021/03/31 03:27:50;;;;;;;5.55;2.83;;;6.10;99.90;;;;;;1909117;74;21047;-73
2021/03/31 03:30:16;;;;;;;7.33;3.27;;;6.00;99.90;;;;;;1915493;74;21086;-73
2021/03/31 03:32:42;;;;;;;5.60;3.00;;;6.00;99.90;;;;;;1910377;74;21556;-72
2021/03/31 03:35:08;;;;;;;6.33;3.30;;;6.10;99.90;;;;;;1916330;73;21505;-73
2021/03/31 03:37:34;;;;;;;3.85;2.77;;;6.10;99.90;;;;;;1911262;74;21482;-73
2021/03/31 03:40:00;;;;;;;5.05;3.05;;;6.00;99.90;;;;;;1912300;74;21071;-73
2021/03/31 03:42:26;;;;;;;7.62;3.20;;;5.90;99.90;;;;;;1911208;74;21042;-73
2021/03/31 03:44:52;;;;;;;6.00;3.40;;;5.90;99.90;;;;;;1915327;74;21135;-73
2021/03/31 03:47:19;;;;;;;4.25;2.95;;;5.80;99.90;;;;;;1912216;74;21153;-73
2021/03/31 03:49:45;;;;;;;7.05;3.62;;;5.80;99.90;;;;;;1915395;73;21075;-73
2021/03/31 03:52:11;;;;;;;4.22;3.15;;;5.80;99.90;;;;;;1915447;73;21068;-73
2021/03/31 03:54:37;;;;;;;5.87;3.27;;;5.80;99.90;;;;;;1915502;74;21071;-73
2021/03/31 03:57:03;;;;;;;5.60;3.37;;;5.70;99.90;;;;;;1912464;74;21035;-73
2021/03/31 03:59:29;;;;;;;7.15;3.27;;;5.70;99.90;;;;;;1915585;74;21074;-73
2021/03/31 04:01:55;;;;;;;4.83;2.45;;;5.70;99.90;;;;;;1912540;73;21598;-72
2021/03/31 04:04:22;;;;;;;4.10;2.75;;;5.70;99.90;;;;;;1915487;74;21152;-73
2021/03/31 04:06:48;;;;;;;9.95;3.35;;;5.60;99.90;;;;;;1912961;73;21078;-73
2021/03/31 04:09:14;;;;;;;4.33;3.08;;;5.50;99.90;;;;;;1912394;73;21193;-73
2021/03/31 04:11:40;;;;;;;4.95;3.33;;;5.60;99.90;;;;;;1917078;74;21066;-73
2021/03/31 04:14:06;;;;;;;4.97;3.42;;;5.50;99.90;;;;;;1912578;73;21074;-72
2021/03/31 04:16:32;;;;;;;4.12;2.98;;;5.50;99.90;;;;;;1915439;73;21156;-72
2021/03/31 04:18:58;;;;;;;4.45;3.02;;;5.50;99.90;;;;;;1918722;73;21042;-74
2021/03/31 04:21:24;;;;;;;20.43;3.60;;;5.40;99.90;;;;;;1911096;74;21149;-72
2021/03/31 04:23:50;;;;;;;4.00;2.70;;;5.50;99.90;;;;;;1915628;74;21522;-72
2021/03/31 04:26:17;;;;;;;4.58;3.20;;;5.40;99.90;;;;;;1912418;74;21584;-72
2021/03/31 04:28:43;;;;;;;6.97;3.00;;;5.40;99.90;;;;;;1912837;73;21140;-72
2021/03/31 04:31:09;;;;;;;5.08;3.30;;;5.40;99.90;;;;;;1914974;74;21133;-72
2021/03/31 04:33:35;;;;;;;10.35;3.42;;;5.40;99.90;;;;;;1910009;73;21067;-74
2021/03/31 04:36:01;;;;;;;8.20;3.27;;;5.40;99.90;;;;;;1914578;73;21042;-72
2021/03/31 04:38:27;;;;;;;5.95;3.52;;;5.40;99.90;;;;;;1911298;74;21070;-72
2021/03/31 04:40:53;;;;;;;5.22;2.87;;;5.40;99.90;;;;;;1913491;74;21156;-72
2021/03/31 04:43:19;;;;;;;4.95;2.90;;;5.40;99.90;;;;;;1914121;73;21070;-72
2021/03/31 04:45:46;;;;;;;6.28;3.42;;;5.40;99.90;;;;;;1911199;74;21187;-72
2021/03/31 04:48:12;;;;;;;5.10;3.17;;;5.40;99.90;;;;;;1913947;73;21132;-72
2021/03/31 04:50:38;;;;;;;13.05;3.42;;;5.30;99.90;;;;;;1916956;74;21087;-71
2021/03/31 04:53:04;;;;;;;6.17;3.40;;;5.40;99.90;;;;;;1912388;74;21035;-71
2021/03/31 04:55:30;;;;;;;6.30;3.33;;;5.40;99.90;;;;;;1916904;73;21084;-73
2021/03/31 04:57:56;;;;;;;6.75;3.75;;;5.40;99.90;;;;;;1910961;74;21517;-72
2021/03/31 05:00:22;;;;;;;5.05;3.22;;;5.40;99.90;;;;;;1915523;73;21486;-73
2021/03/31 05:02:48;;;;;;;4.22;3.30;;;5.40;99.90;;;;;;1916223;73;21501;-73
2021/03/31 05:05:15;;;;;;;8.85;3.10;;;5.30;99.90;;;;;;1916430;74;21059;-72
2021/03/31 05:07:41;;;;;;;4.95;3.27;;;5.40;99.90;;;;;;1911340;73;21089;-73
2021/03/31 05:10:07;;;;;;;4.62;3.17;;;5.40;99.90;;;;;;1915517;74;21077;-73
2021/03/31 05:12:33;;;;;;;6.17;3.00;;;5.40;99.90;;;;;;1913446;74;21081;-73
2021/03/31 05:14:59;;;;;;;6.95;3.25;;;5.30;99.90;;;;;;1913442;73;21102;-73
2021/03/31 05:17:25;;;;;;;7.83;3.52;;;5.40;99.90;;;;;;1916332;74;21074;-73
2021/03/31 05:19:51;;;;;;;4.70;3.25;;;5.40;99.90;;;;;;1911802;74;21491;-74
2021/03/31 05:22:17;;;;;;;4.20;3.35;;;5.50;99.90;;;;;;1913823;73;21567;-72
2021/03/31 05:24:44;;;;;;;9.13;3.40;;;5.50;99.90;;;;;;1912481;74;21482;-72
2021/03/31 05:27:10;;;;;;;8.90;2.77;;;5.50;99.90;;;;;;1915350;74;21081;-72
2021/03/31 05:29:36;;;;;;;9.00;3.90;;;5.50;99.90;;;;;;1912509;74;21117;-72
2021/03/31 05:32:02;;;;;;;10.63;4.00;;;5.60;99.90;;;;;;1915355;74;21043;-72
2021/03/31 05:34:28;;;;;;;18.17;4.87;;;5.50;99.90;;;;;;1914541;74;21070;-72
2021/03/31 05:36:54;;;;;;;8.68;3.22;;;5.50;99.90;;;;;;1912159;74;21078;-72
2021/03/31 05:39:20;;;;;;;8.60;4.40;;;5.60;99.90;;;;;;1915378;74;21071;-72
2021/03/31 05:41:46;;;;;;;4.83;3.22;;;5.60;99.90;;;;;;1912673;74;21192;-73
2021/03/31 05:44:12;;;;;;;13.45;3.50;;;5.60;99.90;;;;;;1915305;74;21074;-73
2021/03/31 05:46:39;;;;;;;10.55;4.67;;;5.60;99.90;;;;;;1913918;74;21043;-74
2021/03/31 05:49:06;;;;;;;10.35;4.05;;;5.70;99.90;;;;;;1915822;73;21097;-74
2021/03/31 05:51:32;;;;;;;11.18;4.30;;;5.70;99.90;;;;;;1914068;73;21066;-73
2021/03/31 05:53:58;;;;;;;9.33;4.37;;;5.70;99.90;;;;;;1914772;73;21079;-72
2021/03/31 05:56:24;;;;;;;8.43;4.00;;;5.80;99.90;;;;;;1911675;73;21274;-73
2021/03/31 05:58:50;;;;;;;11.28;4.00;;;5.80;99.90;;;;;;1914768;73;21066;-72
2021/03/31 06:01:16;;;;;;;5.45;3.65;;;5.90;99.90;;;;;;1914808;73;21091;-72
2021/03/31 06:03:44;;;;;;;11.88;4.45;;;5.90;99.90;;;;;;1910654;74;21483;-72
2021/03/31 06:06:10;;;;;;;13.15;4.10;;;5.90;99.90;;;;;;1908502;73;21075;-71
2021/03/31 06:08:36;;;;;;;8.70;4.35;;;5.90;99.90;;;;;;1913513;74;21042;-73
2021/03/31 06:11:02;;;;;;;12.28;4.50;;;6.00;99.90;;;;;;1911017;74;21136;-75
2021/03/31 06:13:30;;;;;;;9.05;4.75;;;6.10;99.90;;;;;;1914917;74;21074;-78
2021/03/31 06:15:56;;;;;;;11.95;4.42;;;6.20;99.90;;;;;;1917344;73;21074;-74
2021/03/31 06:18:22;;;;;;;13.72;4.00;;;6.20;99.90;;;;;;1917263;74;21520;-74
2021/03/31 06:20:50;;;;;;;23.32;4.35;;;6.30;99.90;;;;;;1912897;74;21070;-74
2021/03/31 06:23:29;;;;;;;14.05;3.80;;;6.50;99.90;;;;;;1914045;73;21110;-74
2021/03/31 06:25:58;;;;;;;11.55;4.28;;;6.70;99.90;;;;;;1914429;74;21103;-74
2021/03/31 06:28:24;;;;;;;10.00;4.22;;;6.90;99.90;;;;;;1908671;74;21075;-74
2021/03/31 06:30:50;;;;;;;12.60;4.10;;;7.10;99.90;;;;;;1913931;73;21076;-74
2021/03/31 06:33:16;;;;;;;7.08;4.20;;;7.30;99.90;;;;;;1913207;74;21070;-74
2021/03/31 06:35:42;;;;;;;11.95;4.17;;;7.40;99.90;;;;;;1910770;74;21086;-74
2021/03/31 06:40:58;;;;;;;9.58;4.55;;;7.60;99.90;;;;;;1916203;74;21086;-73
2021/03/31 06:43:25;;;;;;;12.07;4.25;;;7.80;99.90;;;;;;1921466;74;21187;-73
2021/03/31 06:48:26;;;;;;;7.75;3.75;;;8.10;99.90;;;;;;1922818;74;21176;-73
2021/03/31 06:50:50;;;;;;;8.75;4.25;;;8.20;99.90;;;;;;1924951;74;21082;-73
2021/03/31 06:53:17;;;;;;;13.03;4.00;;;8.30;99.90;;;;;;1922047;74;21072;-72
2021/03/31 06:55:43;;;;;;;6.15;4.03;;;8.40;99.90;;;;;;1920734;74;21077;-72
2021/03/31 06:58:10;;;;;;;7.58;3.95;;;8.60;99.90;;;;;;1919158;74;21078;-72
2021/03/31 07:00:36;;;;;;;11.53;4.20;;;8.70;99.90;;;;;;1920880;74;21513;-72
2021/03/31 07:03:03;;;;;;;11.35;4.25;;;8.80;99.90;;;;;;1925487;74;21074;-73
2021/03/31 07:05:30;;;;;;;8.83;4.15;;;8.90;99.90;;;;;;1922852;74;21504;-73
2021/03/31 07:07:56;;;;;;;9.00;3.95;;;9.00;99.90;;;;;;1928210;74;21155;-72
2021/03/31 07:10:22;;;;;;;12.47;4.22;;;9.10;99.90;;;;;;1922746;74;21073;-72
2021/03/31 07:12:50;;;;;;;7.72;4.15;;;9.20;99.90;;;;;;1917357;74;21060;-72
2021/03/31 07:15:16;;;;;;;9.88;3.70;;;9.20;99.90;;;;;;1928518;74;21078;-72
2021/03/31 07:17:42;;;;;;;10.38;4.30;;;9.30;99.90;;;;;;1923187;74;21135;-72
2021/03/31 07:20:08;;;;;;;11.10;3.55;;;9.40;99.90;;;;;;1925701;74;21073;-73
2021/03/31 07:22:35;;;;;;;9.93;3.65;;;9.50;99.90;;;;;;1925962;74;21116;-73
2021/03/31 07:25:01;;;;;;;11.73;4.10;;;9.70;99.90;;;;;;1925734;74;21172;-73
2021/03/31 07:27:28;;;;;;;6.40;3.47;;;9.80;99.90;;;;;;1920558;74;21447;-73
2021/03/31 07:30:08;;;;;;;19.77;3.80;;;10.00;99.90;;;;;;1925965;74;21046;-73
2021/03/31 07:32:34;;;;;;;8.30;3.72;;;10.20;99.90;;;;;;1925051;74;21081;-72
2021/03/31 07:35:01;;;;;;;6.90;3.27;;;10.40;99.90;;;;;;1924070;74;21093;-74
2021/03/31 07:37:27;;;;;;;4.85;3.10;;;10.40;99.90;;;;;;1925123;74;21167;-73
2021/03/31 07:39:53;;;;;;;10.88;2.90;;;10.50;99.90;;;;;;1923139;74;21139;-73
2021/03/31 07:42:19;;;;;;;5.53;3.15;;;10.60;99.90;;;;;;1925777;74;21069;-73
2021/03/31 07:44:45;;;;;;;7.08;3.65;;;10.60;99.90;;;;;;1922835;74;21047;-73
2021/03/31 07:47:11;;;;;;;12.13;3.42;;;10.60;99.90;;;;;;1925461;74;21081;-73
2021/03/31 07:49:38;;;;;;;7.75;3.60;;;10.70;99.90;;;;;;1925731;74;21269;-72
2021/03/31 07:52:04;;;;;;;7.92;3.75;;;10.70;99.90;;;;;;1922680;74;21132;-73
2021/03/31 07:54:30;;;;;;;12.88;3.77;;;10.90;99.90;;;;;;1917904;74;21331;-72
2021/03/31 07:56:58;;;;;;;8.68;4.03;;;10.90;99.90;;;;;;1922315;74;21442;-72
2021/03/31 07:59:25;;;;;;;5.87;3.17;;;11.00;99.90;;;;;;1925421;74;21089;-71
2021/03/31 08:01:51;;;;;;;8.03;3.83;;;11.00;99.90;;;;;;1921562;74;21213;-70
2021/03/31 08:04:17;;;;;;;8.13;4.00;;;11.10;99.90;;;;;;1922809;74;21209;-72
2021/03/31 08:06:43;;;;;;;5.10;3.15;;;11.20;99.90;;;;;;1925761;74;21050;-70
2021/03/31 08:09:09;;;;;;;4.65;3.12;;;11.40;99.90;;;;;;1922380;74;21086;-71
2021/03/31 08:11:36;;;;;;;10.13;3.20;;;11.70;99.90;;;;;;1922852;74;21065;-71
2021/03/31 08:14:02;;;;;;;9.23;3.25;;;11.60;99.90;;;;;;1926218;74;21069;-72
2021/03/31 08:16:33;;;;;;;15.50;4.03;;;11.70;99.90;;;;;;1922617;74;21151;-72
2021/03/31 08:18:56;;;;;;;12.15;3.10;;;11.90;99.90;;;;;;1926897;74;21045;-72
2021/03/31 08:21:22;;;;;;;12.43;3.62;;;12.00;99.90;;;;;;1926926;74;21146;-72
2021/03/31 08:23:49;;;;;;;4.92;3.25;;;12.20;99.90;;;;;;1921329;74;21077;-72
2021/03/31 08:26:15;;;;;;;10.35;4.20;;;12.50;99.90;;;;;;1923708;74;21135;-72
2021/03/31 08:28:42;;;;;;;7.90;3.37;;;12.70;99.90;;;;;;1924209;74;21078;-71
2021/03/31 08:31:08;;;;;;;14.93;3.40;;;12.80;99.90;;;;;;1920974;74;21085;-71
2021/03/31 08:33:34;;;;;;;6.80;3.15;;;13.10;99.90;;;;;;1924614;74;21217;-71
2021/03/31 08:36:00;;;;;;;13.93;3.60;;;13.20;99.90;;;;;;1922700;74;21118;-71
2021/03/31 08:38:26;;;;;;;10.38;4.08;;;13.40;99.90;;;;;;1919955;74;21066;-71
2021/03/31 08:40:52;;;;;;;14.65;3.75;;;13.30;99.90;;;;;;1923217;74;21235;-71
2021/03/31 08:43:19;;;;;;;5.55;3.08;;;13.20;99.90;;;;;;1925558;74;21195;-70
2021/03/31 08:45:52;;;;;;;9.80;3.42;;;13.50;99.90;;;;;;1919892;74;21085;-71
2021/03/31 08:48:13;;;;;;;9.13;3.40;;;14.20;99.90;;;;;;1924309;74;21442;-71
2021/03/31 08:50:40;;;;;;;9.70;3.47;;;14.50;99.90;;;;;;1928201;74;21482;-71
2021/03/31 08:53:08;;;;;;;10.10;3.77;;;14.90;99.90;;;;;;1919679;74;21223;-71
2021/03/31 08:55:34;;;;;;;8.03;3.42;;;14.90;99.90;;;;;;1923345;74;21158;-71
2021/03/31 08:58:01;;;;;;;7.83;3.55;;;14.90;99.90;;;;;;1922055;74;21173;-71
2021/03/31 09:00:27;;;;;;;17.50;3.83;;;15.20;99.90;;;;;;1925588;74;21139;-72
2021/03/31 09:02:53;;;;;;;9.60;3.52;;;15.30;99.90;;;;;;1922799;74;21175;-72
2021/03/31 09:05:19;;;;;;;18.02;4.10;;;15.70;99.90;;;;;;1920132;74;21077;-72
2021/03/31 09:07:45;;;;;;;11.40;4.05;;;16.10;99.90;;;;;;1920029;74;21225;-71
2021/03/31 09:10:11;;;;;;;6.47;3.67;;;15.50;99.90;;;;;;1917400;74;21159;-71
2021/03/31 09:12:39;;;;;;;16.60;3.33;;;15.20;99.90;;;;;;1921431;74;21074;-73
2021/03/31 09:15:05;;;;;;;8.73;3.22;;;15.70;99.90;;;;;;1923709;74;21148;-73
2021/03/31 09:17:31;;;;;;;6.80;2.83;;;16.00;99.90;;;;;;1921902;74;21069;-73
2021/03/31 09:19:57;;;;;;;6.75;3.35;;;16.70;99.90;;;;;;1925479;74;21069;-73
2021/03/31 09:22:24;;;;;;;13.85;3.15;;;17.00;99.90;;;;;;1922921;74;21140;-72
2021/03/31 09:24:50;;;;;;;9.05;3.83;;;16.90;99.90;;;;;;1925407;74;21136;-73
2021/03/31 09:27:16;;;;;;;7.75;3.10;;;17.10;99.90;;;;;;1923211;74;21143;-73
2021/03/31 09:29:43;;;;;;;10.08;3.27;;;16.80;99.90;;;;;;1922772;74;21196;-71
2021/03/31 09:32:11;;;;;;;7.92;3.25;;;17.30;99.90;;;;;;1925244;74;21489;-72
2021/03/31 09:34:37;;;;;;;9.48;4.47;;;18.30;99.90;;;;;;1925483;74;21194;-71
2021/03/31 09:37:03;;;;;;;7.65;3.42;;;17.90;99.90;;;;;;1922473;74;21073;-72
2021/03/31 09:39:29;;;;;;;7.47;3.92;;;17.70;99.90;;;;;;1925806;74;21150;-71
2021/03/31 09:41:55;;;;;;;7.33;3.20;;;18.30;99.90;;;;;;1924898;74;21146;-71
2021/03/31 09:44:21;;;;;;;13.55;4.03;;;18.80;99.90;;;;;;1920818;74;21163;-72
2021/03/31 09:46:48;;;;;;;9.98;3.65;;;19.00;99.90;;;;;;1920005;74;21498;-72
2021/03/31 09:49:14;;;;;;;8.70;3.02;;;19.30;99.90;;;;;;1925432;74;21615;-69
2021/03/31 09:51:40;;;;;;;5.97;3.52;;;19.20;99.90;;;;;;1922838;74;21472;-69
2021/03/31 09:54:06;;;;;;;7.22;3.70;;;18.80;99.90;;;;;;1920431;74;21521;-71
2021/03/31 09:56:32;;;;;;;7.70;3.37;;;19.20;99.90;;;;;;1928340;74;21509;-72
2021/03/31 09:58:58;;;;;;;7.85;3.55;;;19.80;99.90;;;;;;1928198;74;21509;-74
2021/03/31 10:01:24;;;;;;;10.23;3.75;;;20.40;98.20;;;;;;1928302;74;21042;-74
2021/03/31 10:03:54;;;;;;;11.85;3.75;;;20.70;97.40;;;;;;1922014;74;21078;-73
2021/03/31 10:06:18;;;;;;;11.18;4.15;;;21.10;94.90;;;;;;1926291;74;21158;-73
2021/03/31 10:08:44;;;;;;;7.90;4.08;;;20.60;94.50;;;;;;1919978;74;21086;-74
2021/03/31 10:11:10;;;;;;;10.58;3.58;;;20.50;95.30;;;;;;1928236;74;21410;-73
2021/03/31 10:13:38;;;;;;;9.55;3.33;;;21.30;93.60;;;;;;1920684;74;21554;-72
2021/03/31 10:16:07;;;;;;;12.55;3.67;;;21.80;91.90;;;;;;1917771;74;21112;-75
2021/03/31 10:18:33;;;;;;;11.20;3.27;;;21.90;90.00;;;;;;1925049;74;21144;-72
2021/03/31 10:21:01;;;;;;;7.85;3.30;;;21.90;86.80;;;;;;1917928;74;21077;-73
2021/03/31 10:23:30;;;;;;;8.25;3.55;;;21.90;87.20;;;;;;1925035;74;21474;-73
2021/03/31 10:25:55;;;;;;;7.83;3.25;;;21.90;83.80;;;;;;1923399;74;21042;-73
2021/03/31 10:28:23;;;;;;;9.23;3.30;;;21.50;85.50;;;;;;1925576;74;21237;-73
2021/03/31 10:30:53;;;;;;;7.10;3.62;;;21.20;85.60;;;;;;1927645;74;21072;-74
2021/03/31 10:33:19;;;;;;;15.83;3.37;;;21.60;83.60;;;;;;1921078;74;21527;-73
2021/03/31 10:35:56;;;;;;;12.45;3.17;;;22.60;81.00;;;;;;1922580;74;21123;-71
2021/03/31 10:38:23;;;;;;;9.05;3.70;;;23.60;73.30;;;;;;1914081;74;21470;-73
2021/03/31 10:49:13;;;;;;;6.62;3.22;;;24.40;66.10;;;;;;1918413;74;21194;-74
2021/03/31 10:51:41;;;;;;;8.23;3.47;;;24.10;65.30;;;;;;1916901;74;21144;-73
2021/03/31 10:54:09;;;;;;;7.22;3.25;;;23.80;64.40;;;;;;1920933;74;21513;-73
2021/03/31 10:56:36;;;;;;;7.33;3.30;;;23.90;65.50;;;;;;1927865;74;21519;-73
2021/03/31 10:59:02;;;;;;;6.60;3.15;;;24.20;64.50;;;;;;1920593;74;21155;-73
2021/03/31 11:01:28;;;;;;;5.83;2.80;;;24.00;61.00;;;;;;1919052;74;21155;-73
2021/03/31 11:03:54;;;;;;;5.55;2.67;;;24.60;59.00;;;;;;1918197;74;21152;-73
2021/03/31 11:06:24;;;;;;;6.53;2.80;;;24.90;58.00;;;;;;1925484;74;21154;-73
2021/03/31 11:08:48;;;;;;;5.75;2.70;;;25.00;56.00;;;;;;1921922;74;21136;-72
2021/03/31 11:11:14;;;;;;;12.18;3.30;;;25.10;56.30;;;;;;1921233;74;21085;-72
2021/03/31 11:13:40;;;;;;;9.90;2.92;;;25.00;54.20;;;;;;1925391;74;21139;-72
2021/03/31 11:16:11;;;;;;;4.45;2.47;;;24.70;54.10;;;;;;1924468;74;21163;-73
2021/03/31 11:26:32;;;;;;;9.08;2.65;;;25.50;51.00;;;;;;1925424;74;21167;-72
2021/03/31 11:28:58;;;;;;;12.50;2.80;;;25.70;50.00;;;;;;1921094;74;21156;-72
2021/03/31 11:31:24;;;;;;;7.30;2.75;;;25.50;50.10;;;;;;1917284;74;21064;-73
2021/03/31 11:33:50;;;;;;;12.95;2.98;;;25.90;50.30;;;;;;1924552;74;21077;-74
2021/03/31 11:36:17;;;;;;;5.70;2.45;;;25.80;48.80;;;;;;1920763;74;21065;-73
2021/03/31 11:38:45;;;;;;;4.67;2.60;;;26.70;48.10;;;;;;1922837;74;21081;-73
2021/03/31 11:41:11;;;;;;;15.53;2.70;;;27.00;45.90;;;;;;1922574;74;21146;-73
2021/03/31 11:43:37;;;;;;;7.15;2.70;;;27.40;45.90;;;;;;1928536;74;21027;-74
2021/03/31 11:46:03;;;;;;;5.67;2.47;;;27.80;43.10;;;;;;1922845;74;21085;-74
2021/03/31 11:48:31;;;;;;;3.92;2.17;;;27.50;39.60;;;;;;1916430;74;21225;-75
2021/03/31 11:50:57;;;;;;;10.58;2.55;;;26.60;38.60;;;;;;1928347;74;21466;-72
2021/03/31 11:53:28;;;;;;;5.50;2.45;;;26.70;38.50;;;;;;1928013;74;21555;-72
2021/03/31 11:55:51;;;;;;;7.20;2.40;;;27.00;38.40;;;;;;1925405;74;21094;-71
2021/03/31 11:58:17;;;;;;;5.78;2.52;;;26.90;38.50;;;;;;1924993;74;21144;-69
2021/03/31 12:00:43;;;;;;;5.95;2.30;;;26.70;40.10;;;;;;1920418;73;21069;-72
2021/03/31 12:03:09;;;;;;;4.25;2.40;;;27.50;38.40;;;;;;1923649;74;21139;-72
2021/03/31 12:05:35;;;;;;;4.03;2.02;;;27.60;38.90;;;;;;1927988;74;21542;-78
2021/03/31 12:08:01;;;;;;;4.08;2.25;;;28.10;37.40;;;;;;1923834;74;21493;-71
2021/03/31 12:10:27;;;;;;;5.75;2.60;;;28.10;37.00;;;;;;1922577;74;21496;-79
2021/03/31 12:12:54;;;;;;;5.17;2.37;;;28.10;36.60;;;;;;1920413;74;21555;-72
2021/03/31 12:15:20;;;;;;;5.45;2.05;;;27.90;37.60;;;;;;1928649;73;21442;-71
2021/03/31 12:17:46;;;;;;;4.92;2.55;;;27.80;37.00;;;;;;1924292;74;21077;-71
2021/03/31 12:20:12;;;;;;;5.95;2.25;;;28.40;35.80;;;;;;1922355;74;21105;-71
2021/03/31 12:22:38;;;;;;;7.28;2.30;;;28.70;36.00;;;;;;1923244;74;21069;-71
2021/03/31 12:25:04;;;;;;;4.28;2.40;;;29.20;36.20;;;;;;1926022;74;21065;-72
2021/03/31 12:27:33;;;;;;;6.28;2.62;;;29.80;34.80;;;;;;1921185;74;21081;-71
2021/03/31 12:29:58;;;;;;;5.10;2.35;;;29.10;35.30;;;;;;1920047;74;21478;-71
2021/03/31 12:32:24;;;;;;;4.28;1.85;;;28.40;36.10;;;;;;1928668;74;21531;-71
2021/03/31 12:34:52;;;;;;;6.08;2.37;;;28.90;36.60;;;;;;1926105;74;21497;-72
2021/03/31 12:37:18;;;;;;;9.60;2.60;;;28.60;36.00;;;;;;1926108;74;21142;-71
2021/03/31 12:39:44;;;;;;;5.67;2.45;;;27.80;37.60;;;;;;1926139;74;21089;-71
2021/03/31 12:42:11;;;;;;;8.28;2.35;;;27.10;37.30;;;;;;1928822;73;21093;-71
2021/03/31 12:44:37;;;;;;;8.73;2.47;;;27.50;37.10;;;;;;1926100;74;21042;-73
2021/03/31 12:47:03;;;;;;;7.83;2.42;;;28.40;36.00;;;;;;1922676;74;21073;-71
2021/03/31 12:49:30;;;;;;;4.92;2.40;;;28.80;36.10;;;;;;1921549;74;21130;-71
2021/03/31 12:52:01;;;;;;;8.90;2.58;;;29.30;35.10;;;;;;1926333;74;21480;-70
2021/03/31 12:54:38;;;;;;;4.33;2.35;;;28.90;34.70;;;;;;1917118;74;21113;-70
2021/03/31 12:57:02;;;;;;;8.78;2.62;;;28.50;35.40;;;;;;1919195;74;21118;-69
2021/03/31 12:59:28;;;;;;;5.90;2.27;;;28.10;36.40;;;;;;1926031;74;21047;-70
2021/03/31 13:01:54;;;;;;;3.85;2.37;;;28.40;36.10;;;;;;1925958;74;21195;-70
2021/03/31 13:04:21;;;;;;;3.25;1.82;;;28.70;35.90;;;;;;1920550;74;21081;-71
2021/03/31 13:06:48;;;;;;;4.35;2.27;;;29.60;34.60;;;;;;1917988;74;21454;-72